createdAt,value
2018-06-10T00:00:46.564Z,16.30
2018-06-10T00:03:15.360Z,16.30
2018-06-10T00:05:44.128Z,16.30
2018-06-10T00:08:12.928Z,16.20
2018-06-10T00:10:41.672Z,16.20
2018-06-10T00:13:10.493Z,16.20
2018-06-10T00:15:39.280Z,16.20
2018-06-10T00:18:08.064Z,16.20
2018-06-10T00:20:36.836Z,16.20
2018-06-10T00:23:05.684Z,16.10
2018-06-10T00:28:02.978Z,16.10
2018-06-10T00:30:31.772Z,16.10
2018-06-10T00:33:00.604Z,16.10
2018-06-10T00:35:29.403Z,16.10
2018-06-10T00:37:58.162Z,16.10
2018-06-10T00:40:26.968Z,16.00
2018-06-10T00:42:55.739Z,16.00
2018-06-10T00:45:24.524Z,16.00
2018-06-10T00:47:53.335Z,16.00
2018-06-10T00:50:22.100Z,16.00
2018-06-10T00:52:50.900Z,16.00
2018-06-10T00:55:19.686Z,16.00
2018-06-10T00:57:48.471Z,15.90
2018-06-10T01:00:17.247Z,15.90
2018-06-10T01:02:46.051Z,15.90
2018-06-10T01:05:14.963Z,15.90
2018-06-10T01:07:43.842Z,15.90
2018-06-10T01:10:12.587Z,15.80
2018-06-10T01:12:41.347Z,15.80
2018-06-10T01:15:10.171Z,15.80
2018-06-10T01:17:38.975Z,15.80
2018-06-10T01:20:07.755Z,15.80
2018-06-10T01:22:36.591Z,15.70
2018-06-10T01:25:05.347Z,15.70
2018-06-10T01:27:34.126Z,15.70
2018-06-10T01:30:02.883Z,15.70
2018-06-10T01:32:31.707Z,15.70
2018-06-10T01:35:00.493Z,15.70
2018-06-10T01:37:29.295Z,15.60
2018-06-10T01:42:27.586Z,15.60
2018-06-10T01:44:56.323Z,15.60
2018-06-10T01:47:25.195Z,15.60
2018-06-10T01:49:54.039Z,15.60
2018-06-10T01:52:22.807Z,15.60
2018-06-10T01:54:51.571Z,15.60
2018-06-10T01:57:20.391Z,15.50
2018-06-10T01:59:49.191Z,15.50
2018-06-10T02:02:17.979Z,15.50
2018-06-10T02:04:46.771Z,15.50
2018-06-10T02:07:15.575Z,15.50
2018-06-10T02:09:44.355Z,15.50
2018-06-10T02:12:13.143Z,15.50
2018-06-10T02:14:41.911Z,15.50
2018-06-10T02:17:10.699Z,15.50
2018-06-10T02:19:39.495Z,15.50
2018-06-10T02:22:09.224Z,15.50
2018-06-10T02:24:38.016Z,15.50
2018-06-10T02:27:06.800Z,15.50
2018-06-10T02:32:04.391Z,15.50
2018-06-10T02:34:33.136Z,15.40
2018-06-10T02:37:01.915Z,15.50
2018-06-10T02:39:30.732Z,15.50
2018-06-10T02:42:00.604Z,15.40
2018-06-10T02:44:29.329Z,15.40
2018-06-10T02:49:26.549Z,15.40
2018-06-10T02:51:56.396Z,15.40
2018-06-10T02:54:25.148Z,15.40
2018-06-10T02:56:53.964Z,15.40
2018-06-10T02:59:22.772Z,15.30
2018-06-10T03:01:51.554Z,15.30
2018-06-10T03:04:20.380Z,15.30
2018-06-10T03:06:49.273Z,15.30
2018-06-10T03:09:18.112Z,15.30
2018-06-10T03:11:46.920Z,15.30
2018-06-10T03:14:15.692Z,15.30
2018-06-10T03:16:44.528Z,15.20
2018-06-10T03:19:13.408Z,15.20
2018-06-10T03:21:42.159Z,15.20
2018-06-10T03:24:10.973Z,15.20
2018-06-10T03:26:39.748Z,15.20
2018-06-10T03:29:08.536Z,15.20
2018-06-10T03:31:37.335Z,15.20
2018-06-10T03:34:06.079Z,15.20
2018-06-10T03:36:34.915Z,15.20
2018-06-10T03:39:06.744Z,15.20
2018-06-10T03:41:35.780Z,15.20
2018-06-10T03:44:04.536Z,15.20
2018-06-10T03:46:33.370Z,15.20
2018-06-10T03:49:02.248Z,15.20
2018-06-10T03:51:31.099Z,15.20
2018-06-10T03:53:59.891Z,15.10
2018-06-10T03:56:28.717Z,15.10
2018-06-10T03:58:57.567Z,15.20
2018-06-10T04:01:26.347Z,15.10
2018-06-10T04:03:55.130Z,15.10
2018-06-10T04:06:23.914Z,15.20
2018-06-10T04:08:52.711Z,15.20
2018-06-10T04:11:21.507Z,15.10
2018-06-10T04:13:51.367Z,15.20
2018-06-10T04:16:20.179Z,15.20
2018-06-10T04:18:48.975Z,15.20
2018-06-10T04:21:17.779Z,15.20
2018-06-10T04:23:46.551Z,15.20
2018-06-10T04:26:15.358Z,15.20
2018-06-10T04:28:44.143Z,15.20
2018-06-10T04:31:12.943Z,15.20
2018-06-10T04:36:10.195Z,15.30
2018-06-10T04:38:39.003Z,15.30
2018-06-10T04:41:07.791Z,15.30
2018-06-10T04:43:36.559Z,15.30
2018-06-10T04:46:05.355Z,15.30
2018-06-10T04:48:34.123Z,15.40
2018-06-10T04:51:02.916Z,15.40
2018-06-10T04:53:31.759Z,15.40
2018-06-10T04:56:00.616Z,15.40
2018-06-10T04:58:29.395Z,15.40
2018-06-10T05:00:58.155Z,15.50
2018-06-10T05:03:26.963Z,15.50
2018-06-10T05:05:55.756Z,15.50
2018-06-10T05:08:24.523Z,15.60
2018-06-10T05:10:53.327Z,15.60
2018-06-10T05:13:22.110Z,15.70
2018-06-10T05:15:50.914Z,15.70
2018-06-10T05:18:19.707Z,15.80
2018-06-10T05:20:48.473Z,15.80
2018-06-10T05:23:17.259Z,15.90
2018-06-10T05:25:46.059Z,15.90
2018-06-10T05:28:14.830Z,16.00
2018-06-10T05:30:43.639Z,16.00
2018-06-10T05:33:13.431Z,16.10
2018-06-10T05:35:42.219Z,16.10
2018-06-10T05:38:11.711Z,16.20
2018-06-10T05:40:40.503Z,16.30
2018-06-10T05:43:09.456Z,16.30
2018-06-10T05:45:38.291Z,16.40
2018-06-10T05:48:07.115Z,16.40
2018-06-10T05:50:35.851Z,16.60
2018-06-10T05:53:04.639Z,16.60
2018-06-10T05:55:33.439Z,16.70
2018-06-10T05:58:03.251Z,16.70
2018-06-10T06:00:32.051Z,16.80
2018-06-10T06:03:00.851Z,16.90
2018-06-10T06:05:29.596Z,16.90
2018-06-10T06:07:58.387Z,17.00
2018-06-10T06:10:27.175Z,17.10
2018-06-10T06:12:55.983Z,17.10
2018-06-10T06:15:24.755Z,17.20
2018-06-10T06:17:53.527Z,17.30
2018-06-10T06:20:22.327Z,17.30
2018-06-10T06:22:52.139Z,17.40
2018-06-10T06:25:20.934Z,17.50
2018-06-10T06:27:49.731Z,17.50
2018-06-10T06:30:19.538Z,17.60
2018-06-10T06:32:48.311Z,17.70
2018-06-10T06:35:17.114Z,17.80
2018-06-10T06:37:45.883Z,17.90
2018-06-10T06:40:14.686Z,18.00
2018-06-10T06:42:44.486Z,18.10
2018-06-10T06:45:13.275Z,18.20
2018-06-10T06:47:42.074Z,18.30
2018-06-10T06:50:10.878Z,18.40
2018-06-10T06:52:39.730Z,18.50
2018-06-10T06:55:08.442Z,18.60
2018-06-10T06:57:37.219Z,18.70
2018-06-10T07:00:06.007Z,18.90
2018-06-10T07:02:34.807Z,19.00
2018-06-10T07:05:03.587Z,19.20
2018-06-10T07:07:32.370Z,19.40
2018-06-10T07:10:01.155Z,19.60
2018-06-10T07:12:29.939Z,19.90
2018-06-10T07:14:58.746Z,20.20
2018-06-10T07:17:27.502Z,20.50
2018-06-10T07:19:56.361Z,20.80
2018-06-10T07:22:25.083Z,21.00
2018-06-10T07:24:53.884Z,21.30
2018-06-10T07:27:22.667Z,21.40
2018-06-10T07:29:51.455Z,21.60
2018-06-10T07:32:20.242Z,21.80
2018-06-10T07:34:49.034Z,22.10
2018-06-10T07:37:17.833Z,22.30
2018-06-10T07:39:46.603Z,22.40
2018-06-10T07:42:15.405Z,22.70
2018-06-10T07:44:44.183Z,22.90
2018-06-10T07:47:12.987Z,23.20
2018-06-10T07:49:41.754Z,23.40
2018-06-10T07:52:10.551Z,23.60
2018-06-10T07:54:39.316Z,23.80
2018-06-10T07:57:08.138Z,24.00
2018-06-10T07:59:36.922Z,24.20
2018-06-10T08:02:05.800Z,24.30
2018-06-10T08:04:34.609Z,24.60
2018-06-10T08:09:31.854Z,24.90
2018-06-10T08:12:00.707Z,25.00
2018-06-10T08:14:29.438Z,25.20
2018-06-10T08:16:58.222Z,25.40
2018-06-10T08:19:27.010Z,25.50
2018-06-10T08:21:55.823Z,25.70
2018-06-10T08:24:24.611Z,25.90
2018-06-10T08:26:53.366Z,26.10
2018-06-10T08:29:22.158Z,26.20
2018-06-10T08:31:50.951Z,26.40
2018-06-10T08:34:19.746Z,26.50
2018-06-10T08:36:48.535Z,26.70
2018-06-10T08:39:17.310Z,26.80
2018-06-10T08:41:46.098Z,26.90
2018-06-10T08:44:14.923Z,27.10
2018-06-10T08:49:12.279Z,27.30
2018-06-10T08:51:41.031Z,27.40
2018-06-10T08:54:09.814Z,27.50
2018-06-10T08:56:38.623Z,27.60
2018-06-10T08:59:07.398Z,27.70
2018-06-10T09:01:36.194Z,27.80
2018-06-10T09:04:04.975Z,28.00
2018-06-10T09:06:33.755Z,28.00
2018-06-10T09:09:02.539Z,28.20
2018-06-10T09:11:31.338Z,28.30
2018-06-10T09:14:00.606Z,28.40
2018-06-10T09:16:29.327Z,28.50
2018-06-10T09:18:58.119Z,28.60
2018-06-10T09:21:26.907Z,28.60
2018-06-10T09:23:55.723Z,28.80
2018-06-10T09:31:22.562Z,29.00
2018-06-10T09:33:51.370Z,29.00
2018-06-10T09:36:20.154Z,29.10
2018-06-10T09:38:48.942Z,29.20
2018-06-10T09:41:17.734Z,29.30
2018-06-10T09:43:46.529Z,29.30
2018-06-10T09:48:43.867Z,29.50
2018-06-10T09:51:13.674Z,29.50
2018-06-10T09:53:42.474Z,29.60
2018-06-10T09:56:11.321Z,29.70
2018-06-10T09:58:40.067Z,29.80
2018-06-10T10:01:08.850Z,29.80
2018-06-10T10:03:37.628Z,29.90
2018-06-10T10:06:06.430Z,29.90
2018-06-10T10:08:35.206Z,30.00
2018-06-10T10:11:04.050Z,30.00
2018-06-10T10:13:32.766Z,30.10
2018-06-10T10:16:01.559Z,30.20
2018-06-10T10:18:30.364Z,30.20
2018-06-10T10:20:59.150Z,30.20
2018-06-10T10:23:27.930Z,30.30
2018-06-10T10:25:56.715Z,30.40
2018-06-10T10:28:25.531Z,30.50
2018-06-10T10:30:54.294Z,30.60
2018-06-10T10:33:23.106Z,30.70
2018-06-10T10:35:51.830Z,30.80
2018-06-10T10:38:20.659Z,30.80
2018-06-10T10:40:49.449Z,30.90
2018-06-10T10:43:18.231Z,31.00
2018-06-10T10:45:47.007Z,31.10
2018-06-10T10:48:15.726Z,31.10
2018-06-10T10:50:44.486Z,31.20
2018-06-10T10:53:13.202Z,31.20
2018-06-10T10:58:10.447Z,31.40
2018-06-10T11:03:07.614Z,31.70
2018-06-10T11:05:36.402Z,31.70
2018-06-10T11:08:05.158Z,31.80
2018-06-10T11:10:34.031Z,31.90
2018-06-10T11:15:31.261Z,31.90
2018-06-10T11:20:28.577Z,31.90
2018-06-10T11:22:57.310Z,32.00
2018-06-10T11:25:26.122Z,32.10
2018-06-10T11:27:54.881Z,32.10
2018-06-10T11:30:23.682Z,32.20
2018-06-10T11:32:52.490Z,32.30
2018-06-10T11:35:21.237Z,32.40
2018-06-10T11:37:49.989Z,32.50
2018-06-10T11:40:18.822Z,32.60
2018-06-10T11:42:47.649Z,32.70
2018-06-10T11:50:13.240Z,33.00
2018-06-10T11:52:42.037Z,33.10
2018-06-10T11:55:10.757Z,33.20
2018-06-10T11:57:39.488Z,33.20
2018-06-10T12:00:08.301Z,33.20
2018-06-10T12:02:37.089Z,33.30
2018-06-10T12:05:05.865Z,33.30
2018-06-10T12:10:03.132Z,33.20
2018-06-10T12:12:31.932Z,33.20
2018-06-10T12:15:00.716Z,33.10
2018-06-10T12:17:29.508Z,33.00
2018-06-10T12:19:58.216Z,32.90
2018-06-10T12:22:27.016Z,32.80
2018-06-10T12:24:55.961Z,32.60
2018-06-10T12:27:24.812Z,32.50
2018-06-10T12:29:53.637Z,32.40
2018-06-10T12:32:22.494Z,32.30
2018-06-10T12:34:51.314Z,32.10
2018-06-10T12:37:20.097Z,32.00
2018-06-10T12:39:48.893Z,31.90
2018-06-10T12:44:46.160Z,31.60
2018-06-10T12:47:14.965Z,31.60
2018-06-10T12:49:43.673Z,31.40
2018-06-10T12:54:40.917Z,31.10
2018-06-10T12:57:09.682Z,30.90
2018-06-10T12:59:38.489Z,30.70
2018-06-10T13:02:07.372Z,30.50
2018-06-10T13:04:36.166Z,30.30
2018-06-10T13:07:04.982Z,30.20
2018-06-10T13:09:33.760Z,30.10
2018-06-10T13:12:03.546Z,30.00
2018-06-10T13:14:32.342Z,29.90
2018-06-10T13:17:01.138Z,29.80
2018-06-10T13:19:29.922Z,29.80
2018-06-10T13:21:58.722Z,29.70
2018-06-10T13:24:27.493Z,29.50
2018-06-10T13:26:56.286Z,29.50
2018-06-10T13:29:25.084Z,29.40
2018-06-10T13:31:53.810Z,29.20
2018-06-10T13:34:22.542Z,29.10
2018-06-10T13:36:52.353Z,28.90
2018-06-10T13:39:21.198Z,28.80
2018-06-10T13:41:50.026Z,28.80
2018-06-10T13:44:18.849Z,28.80
2018-06-10T13:49:16.122Z,29.10
2018-06-10T13:51:44.874Z,29.20
2018-06-10T13:54:13.673Z,29.40
2018-06-10T13:56:42.410Z,29.50
2018-06-10T13:59:11.241Z,29.60
2018-06-10T14:01:40.054Z,29.70
2018-06-10T14:04:08.805Z,29.80
2018-06-10T14:06:37.613Z,29.90
2018-06-10T14:09:06.957Z,29.90
2018-06-10T14:11:35.785Z,29.90
2018-06-10T14:14:04.593Z,30.00
2018-06-10T14:16:34.398Z,30.00
2018-06-10T14:19:03.230Z,30.00
2018-06-10T14:24:00.454Z,29.90
2018-06-10T14:26:29.242Z,29.80
2018-06-10T14:28:58.077Z,29.80
2018-06-10T14:31:26.854Z,29.90
2018-06-10T14:33:55.610Z,30.00
2018-06-10T14:36:24.421Z,30.20
2018-06-10T14:38:53.191Z,30.30
2018-06-10T14:41:21.977Z,30.60
2018-06-10T14:43:50.781Z,30.80
2018-06-10T14:46:19.568Z,31.00
2018-06-10T14:48:48.349Z,31.20
2018-06-10T14:51:17.177Z,31.40
2018-06-10T14:53:45.902Z,31.60
2018-06-10T14:56:14.713Z,31.80
2018-06-10T14:58:43.496Z,31.90
2018-06-10T15:01:12.265Z,32.10
2018-06-10T15:03:41.072Z,32.30
2018-06-10T15:06:09.870Z,32.40
2018-06-10T15:08:38.628Z,32.50
2018-06-10T15:11:07.433Z,32.70
2018-06-10T15:13:36.217Z,32.80
2018-06-10T15:16:05.005Z,33.00
2018-06-10T15:18:33.718Z,33.10
2018-06-10T15:21:02.466Z,33.20
2018-06-10T15:23:31.181Z,33.30
2018-06-10T15:25:59.941Z,33.50
2018-06-10T15:28:28.718Z,33.60
2018-06-10T15:33:25.785Z,33.70
2018-06-10T15:38:23.069Z,33.80
2018-06-10T15:40:51.859Z,33.80
2018-06-10T15:43:20.629Z,33.90
2018-06-10T15:45:49.417Z,33.80
2018-06-10T15:48:18.213Z,33.70
2018-06-10T15:50:46.994Z,33.70
2018-06-10T15:53:16.809Z,33.60
2018-06-10T15:55:45.533Z,33.50
2018-06-10T15:58:14.294Z,33.50
2018-06-10T16:03:11.541Z,33.30
2018-06-10T16:05:40.337Z,33.20
2018-06-10T16:08:09.117Z,33.10
2018-06-10T16:10:37.841Z,33.00
2018-06-10T16:13:06.617Z,32.90
2018-06-10T16:15:35.397Z,32.80
2018-06-10T16:18:04.177Z,32.80
2018-06-10T16:20:32.965Z,32.60
2018-06-10T16:23:01.753Z,32.50
2018-06-10T16:25:30.575Z,32.40
2018-06-10T16:27:59.421Z,32.20
2018-06-10T16:30:28.120Z,32.10
2018-06-10T16:32:56.903Z,31.90
2018-06-10T16:35:25.689Z,31.70
2018-06-10T16:37:54.477Z,31.60
2018-06-10T16:40:23.258Z,31.40
2018-06-10T16:42:52.041Z,31.30
2018-06-10T16:45:20.849Z,31.10
2018-06-10T16:47:49.625Z,31.00
2018-06-10T16:50:18.405Z,30.80
2018-06-10T16:52:47.220Z,30.60
2018-06-10T16:55:15.993Z,30.50
2018-06-10T16:57:44.776Z,30.50
2018-06-10T17:00:13.562Z,30.30
2018-06-10T17:02:42.357Z,30.30
2018-06-10T17:05:11.133Z,30.20
2018-06-10T17:07:39.933Z,30.20
2018-06-10T17:10:08.713Z,30.20
2018-06-10T17:12:37.505Z,30.20
2018-06-10T17:15:06.349Z,30.20
2018-06-10T17:17:35.081Z,30.30
2018-06-10T17:20:03.936Z,30.30
2018-06-10T17:22:32.753Z,30.40
2018-06-10T17:25:01.489Z,30.50
2018-06-10T17:27:30.217Z,30.50
2018-06-10T17:29:59.017Z,30.50
2018-06-10T17:32:27.804Z,30.50
2018-06-10T17:34:56.572Z,30.50
2018-06-10T17:37:25.364Z,30.40
2018-06-10T17:39:54.148Z,30.30
2018-06-10T17:42:22.944Z,30.20
2018-06-10T17:44:51.649Z,30.10
2018-06-10T17:47:20.428Z,30.00
2018-06-10T17:49:49.220Z,29.80
2018-06-10T17:52:17.933Z,29.70
2018-06-10T17:54:46.636Z,29.60
2018-06-10T17:57:15.376Z,29.50
2018-06-10T17:59:44.148Z,29.40
2018-06-10T18:02:12.956Z,29.30
2018-06-10T18:04:41.808Z,29.20
2018-06-10T18:07:10.628Z,29.10
2018-06-10T18:09:39.412Z,29.00
2018-06-10T18:12:08.188Z,28.80
2018-06-10T18:14:36.912Z,28.80
2018-06-10T18:17:05.676Z,28.70
2018-06-10T18:19:34.464Z,28.50
2018-06-10T18:22:03.328Z,28.40
2018-06-10T18:24:32.312Z,28.30
2018-06-10T18:27:01.064Z,28.20
2018-06-10T18:29:29.847Z,28.10
2018-06-10T18:31:58.644Z,28.00
2018-06-10T18:34:27.412Z,27.90
2018-06-10T18:36:56.184Z,27.70
2018-06-10T18:39:24.972Z,27.60
2018-06-10T18:41:53.772Z,27.50
2018-06-10T18:44:22.548Z,27.30
2018-06-10T18:46:51.346Z,27.20
2018-06-10T18:49:20.060Z,27.10
2018-06-10T18:51:48.836Z,27.00
2018-06-10T18:54:17.583Z,26.90
2018-06-10T18:56:46.380Z,26.80
2018-06-10T18:59:15.103Z,26.60
2018-06-10T19:01:43.872Z,26.50
2018-06-10T19:04:12.608Z,26.40
2018-06-10T19:06:41.446Z,26.30
2018-06-10T19:09:10.172Z,26.20
2018-06-10T19:11:38.929Z,26.10
2018-06-10T19:14:07.724Z,25.90
2018-06-10T19:16:36.496Z,25.70
2018-06-10T19:19:05.367Z,25.60
2018-06-10T19:21:34.152Z,25.50
2018-06-10T19:24:02.876Z,25.40
2018-06-10T19:26:31.636Z,25.30
2018-06-10T19:29:00.436Z,25.10
2018-06-10T19:31:29.212Z,25.00
2018-06-10T19:33:58.021Z,24.90
2018-06-10T19:36:26.784Z,24.70
2018-06-10T19:38:55.601Z,24.60
2018-06-10T19:41:24.380Z,24.50
2018-06-10T19:43:53.247Z,24.40
2018-06-10T19:46:22.052Z,24.30
2018-06-10T19:51:19.248Z,24.10
2018-06-10T19:53:47.992Z,24.00
2018-06-10T19:56:16.792Z,23.80
2018-06-10T19:58:45.608Z,23.70
2018-06-10T20:01:14.392Z,23.60
2018-06-10T20:03:43.160Z,23.50
2018-06-10T20:06:11.940Z,23.40
2018-06-10T20:08:40.731Z,23.30
2018-06-10T20:11:09.524Z,23.20
2018-06-10T20:13:38.291Z,23.10
2018-06-10T20:16:07.092Z,23.00
2018-06-10T20:18:35.843Z,22.90
2018-06-10T20:21:04.592Z,22.80
2018-06-10T20:23:33.384Z,22.70
2018-06-10T20:26:02.148Z,22.60
2018-06-10T20:30:59.413Z,22.40
2018-06-10T20:33:28.167Z,22.30
2018-06-10T20:35:57.008Z,22.20
2018-06-10T20:38:25.727Z,22.10
2018-06-10T20:40:54.561Z,22.10
2018-06-10T20:43:23.352Z,22.00
2018-06-10T20:45:52.131Z,21.90
2018-06-10T20:48:20.936Z,21.80
2018-06-10T20:50:49.704Z,21.80
2018-06-10T20:53:18.520Z,21.70
2018-06-10T20:55:47.284Z,21.60
2018-06-10T20:58:16.033Z,21.60
2018-06-10T21:00:44.868Z,21.50
2018-06-10T21:03:13.701Z,21.40
2018-06-10T21:05:42.447Z,21.40
2018-06-10T21:08:11.225Z,21.30
2018-06-10T21:10:40.033Z,21.30
2018-06-10T21:13:08.821Z,21.30
2018-06-10T21:15:37.611Z,21.20
2018-06-10T21:18:06.383Z,21.20
2018-06-10T21:20:35.303Z,21.10
2018-06-10T21:23:05.251Z,21.00
2018-06-10T21:25:34.123Z,21.00
2018-06-10T21:28:02.927Z,21.00
2018-06-10T21:30:31.811Z,20.90
2018-06-10T21:33:00.667Z,20.90
2018-06-10T21:35:30.531Z,20.80
2018-06-10T21:37:59.439Z,20.80
2018-06-10T21:40:29.312Z,20.70
2018-06-10T21:42:58.128Z,20.70
2018-06-10T21:45:26.980Z,20.60
2018-06-10T21:47:55.755Z,20.60
2018-06-10T21:50:24.532Z,20.50
2018-06-10T21:52:53.276Z,20.50
2018-06-10T21:55:22.036Z,20.50
2018-06-10T21:57:50.852Z,20.40
2018-06-10T22:00:24.676Z,20.40
2018-06-10T22:02:53.756Z,20.40
2018-06-10T22:05:22.627Z,20.30
2018-06-10T22:07:51.503Z,20.20
2018-06-10T22:10:20.275Z,20.20
2018-06-10T22:12:49.035Z,20.10
2018-06-10T22:15:17.839Z,20.10
2018-06-10T22:17:46.643Z,20.10
2018-06-10T22:20:15.426Z,20.00
2018-06-10T22:22:45.047Z,20.00
2018-06-10T22:25:13.839Z,20.00
2018-06-10T22:27:42.621Z,19.90
2018-06-10T22:30:11.387Z,19.90
2018-06-10T22:32:40.223Z,19.80
2018-06-10T22:35:09.379Z,19.80
2018-06-10T22:37:38.183Z,19.70
2018-06-10T22:42:36.611Z,19.60
2018-06-10T22:45:05.454Z,19.60
2018-06-10T22:50:02.869Z,19.50
2018-06-10T22:52:31.803Z,19.40
2018-06-10T22:55:00.635Z,19.40
2018-06-10T22:57:29.449Z,19.40
2018-06-10T22:59:58.251Z,19.30
2018-06-10T23:02:27.067Z,19.20
2018-06-10T23:04:56.951Z,19.20
2018-06-10T23:07:25.969Z,19.20
2018-06-10T23:09:54.811Z,19.10
2018-06-10T23:12:23.687Z,19.10
2018-06-10T23:14:52.554Z,19.00
2018-06-10T23:17:21.351Z,19.00
2018-06-10T23:19:50.223Z,19.00
2018-06-10T23:22:19.067Z,18.90
2018-06-10T23:24:47.919Z,18.90
2018-06-10T23:27:16.679Z,18.90
2018-06-10T23:29:45.509Z,18.80
2018-06-10T23:32:14.283Z,18.80
2018-06-10T23:34:43.194Z,18.70
2018-06-10T23:37:12.075Z,18.70
2018-06-10T23:39:40.829Z,18.70
2018-06-10T23:42:09.671Z,18.60
2018-06-10T23:44:38.557Z,18.60
2018-06-10T23:47:07.424Z,18.60
2018-06-10T23:52:04.618Z,18.50
2018-06-10T23:54:33.437Z,18.40
2018-06-10T23:57:02.242Z,18.40
2018-06-10T23:59:31.066Z,18.40
